Time;durP1;ratioP1;P1;durP2;ratioP2;P2;SDS_P1;SDS_P2;PMS_P1;PMS_P2;Temp;Humidity;BMP_temperature;BMP_pressure;BME280_temperature;BME280_humidity;BME280_pressure;Samples;Min_cycle;Max_cycle;Signal;HPM_P1;HPM_P2
2023/11/16 00:00:47;;;;;;;3.55;0.45;;;9.10;99.90;;;;;;4949115;29;20528;-64
2023/11/16 00:03:13;;;;;;;5.20;0.50;;;9.10;99.90;;;;;;4953348;28;20082;-63
2023/11/16 00:05:43;;;;;;;5.18;0.98;;;9.10;99.90;;;;;;4948599;29;20043;-63
2023/11/16 00:08:13;;;;;;;1.40;0.20;;;9.10;99.90;;;;;;4950392;29;20086;-64
2023/11/16 00:10:40;;;;;;;0.10;0.10;;;9.10;99.90;;;;;;4950620;28;20106;-64
2023/11/16 00:13:07;;;;;;;6.40;0.95;;;9.10;99.90;;;;;;4963179;28;20469;-64
2023/11/16 00:15:33;;;;;;;5.15;0.52;;;9.20;99.90;;;;;;4950154;29;20050;-63
2023/11/16 00:18:03;;;;;;;2.08;0.40;;;9.20;99.90;;;;;;4967437;28;20046;-64
2023/11/16 00:20:29;;;;;;;4.65;0.45;;;9.20;99.90;;;;;;4959978;28;20130;-63
2023/11/16 00:22:56;;;;;;;3.10;0.32;;;9.20;99.90;;;;;;4964913;28;20034;-63
2023/11/16 00:25:23;;;;;;;2.95;0.50;;;9.30;99.90;;;;;;4969596;28;20047;-63
2023/11/16 00:27:50;;;;;;;0.50;0.30;;;9.20;99.90;;;;;;4967095;28;20062;-63
2023/11/16 00:30:17;;;;;;;0.77;0.10;;;9.20;99.90;;;;;;4965901;28;20096;-64
2023/11/16 00:32:44;;;;;;;3.60;0.68;;;9.20;99.90;;;;;;4952484;28;20050;-63
2023/11/16 00:35:10;;;;;;;1.60;0.57;;;9.10;99.90;;;;;;4967939;28;20034;-63
2023/11/16 00:37:37;;;;;;;8.85;0.75;;;9.10;99.90;;;;;;4969407;28;20178;-63
2023/11/16 00:40:05;;;;;;;0.98;0.88;;;9.00;99.90;;;;;;4967249;28;20046;-64
2023/11/16 00:42:36;;;;;;;4.97;0.55;;;9.00;99.90;;;;;;4963834;28;20059;-64
2023/11/16 00:45:03;;;;;;;15.55;1.63;;;9.00;99.90;;;;;;4967662;28;20081;-64
2023/11/16 00:47:30;;;;;;;10.00;1.40;;;9.00;99.90;;;;;;4969326;28;20880;-64
2023/11/16 00:49:56;;;;;;;13.30;1.50;;;9.00;99.90;;;;;;4968190;28;20118;-63
2023/11/16 00:52:24;;;;;;;7.22;1.50;;;9.00;99.90;;;;;;4966113;28;20622;-64
2023/11/16 00:54:52;;;;;;;6.22;2.30;;;9.10;99.90;;;;;;4968750;28;20043;-64
2023/11/16 00:57:24;;;;;;;10.35;2.47;;;9.20;99.90;;;;;;4967645;28;20043;-64
2023/11/16 00:59:50;;;;;;;8.00;1.25;;;9.20;99.90;;;;;;4969057;28;20501;-64
2023/11/16 01:02:17;;;;;;;8.05;1.10;;;9.20;99.90;;;;;;4955581;28;20043;-64
2023/11/16 01:04:43;;;;;;;12.45;1.48;;;9.20;99.90;;;;;;4966023;28;20053;-64
2023/11/16 01:07:11;;;;;;;8.55;1.17;;;9.30;99.90;;;;;;4967879;28;20047;-64
2023/11/16 01:09:38;;;;;;;16.05;1.73;;;9.30;99.90;;;;;;4968085;28;20493;-64
2023/11/16 01:12:11;;;;;;;15.27;1.75;;;9.30;99.90;;;;;;4968720;28;20105;-64
2023/11/16 01:14:39;;;;;;;11.85;1.30;;;9.20;99.90;;;;;;4964458;28;20042;-64
2023/11/16 01:17:11;;;;;;;11.05;2.38;;;9.20;99.90;;;;;;4968669;28;20417;-64
2023/11/16 01:19:45;;;;;;;15.15;2.05;;;9.20;99.90;;;;;;4966099;28;20046;-64
2023/11/16 01:22:18;;;;;;;13.80;1.35;;;9.20;99.90;;;;;;4968339;28;20050;-64
2023/11/16 01:24:46;;;;;;;6.43;1.13;;;9.10;99.90;;;;;;4955165;28;20046;-64
2023/11/16 01:27:18;;;;;;;4.93;1.20;;;9.00;99.90;;;;;;4967033;28;20113;-64
2023/11/16 01:29:45;;;;;;;8.85;1.00;;;8.90;99.90;;;;;;4968743;28;20059;-64
2023/11/16 01:32:13;;;;;;;3.35;0.65;;;8.90;99.90;;;;;;4963296;28;20442;-64
2023/11/16 01:34:41;;;;;;;4.70;0.65;;;8.90;99.90;;;;;;4960940;28;20047;-64
2023/11/16 01:37:09;;;;;;;7.40;0.93;;;8.80;99.90;;;;;;4945013;28;20054;-64
2023/11/16 01:39:35;;;;;;;8.98;1.05;;;8.80;99.90;;;;;;4972075;28;20531;-64
2023/11/16 01:42:01;;;;;;;3.95;0.85;;;8.80;99.90;;;;;;4971899;28;20043;-64
2023/11/16 01:44:28;;;;;;;9.48;0.80;;;8.80;99.90;;;;;;4965222;28;20042;-64
2023/11/16 01:46:56;;;;;;;5.22;0.70;;;8.70;99.90;;;;;;4969005;28;20070;-64
2023/11/16 01:49:23;;;;;;;10.63;1.10;;;8.80;99.90;;;;;;4971005;28;20182;-64
2023/11/16 01:51:55;;;;;;;11.23;1.90;;;8.80;99.90;;;;;;4972273;28;20039;-64
2023/11/16 01:54:22;;;;;;;5.47;0.90;;;8.80;99.90;;;;;;4970272;28;20035;-64
2023/11/16 01:56:50;;;;;;;10.65;1.17;;;8.80;99.90;;;;;;4965480;28;20057;-63
2023/11/16 01:59:19;;;;;;;5.65;0.70;;;8.70;99.90;;;;;;4971630;28;20117;-64
2023/11/16 02:01:46;;;;;;;4.75;0.80;;;8.60;99.90;;;;;;4945279;29;20393;-64
2023/11/16 02:04:14;;;;;;;6.20;0.80;;;8.60;99.90;;;;;;4971239;28;20118;-64
2023/11/16 02:06:40;;;;;;;8.32;0.65;;;8.50;99.90;;;;;;4955832;28;20082;-64
2023/11/16 02:09:07;;;;;;;3.45;0.85;;;8.50;99.90;;;;;;4968987;28;20088;-64
2023/11/16 02:11:33;;;;;;;3.67;0.45;;;8.30;99.90;;;;;;4974362;28;20455;-64
2023/11/16 02:14:00;;;;;;;3.55;0.85;;;8.30;99.90;;;;;;4971869;28;20051;-63
2023/11/16 02:16:28;;;;;;;1.48;0.50;;;8.20;99.90;;;;;;4959665;28;20049;-64
2023/11/16 02:19:05;;;;;;;4.22;0.50;;;8.20;99.90;;;;;;4947159;28;20090;-64
2023/11/16 02:21:38;;;;;;;3.35;0.77;;;8.20;99.90;;;;;;4954980;28;20122;-63
2023/11/16 02:24:08;;;;;;;3.70;0.63;;;8.20;99.90;;;;;;4969875;28;20046;-63
2023/11/16 02:26:34;;;;;;;3.15;0.70;;;8.20;99.90;;;;;;4964592;28;20136;-63
2023/11/16 02:29:01;;;;;;;8.20;0.60;;;8.20;99.90;;;;;;4963429;28;20137;-63
2023/11/16 02:31:28;;;;;;;7.10;0.77;;;8.20;99.90;;;;;;4964767;28;20047;-63
2023/11/16 02:33:54;;;;;;;3.80;0.60;;;8.20;99.90;;;;;;4962419;28;20047;-63
2023/11/16 02:36:21;;;;;;;4.68;0.80;;;8.20;99.90;;;;;;4969942;28;20056;-63
2023/11/16 02:38:48;;;;;;;3.25;0.60;;;8.20;99.90;;;;;;4971575;28;20039;-63
2023/11/16 02:41:15;;;;;;;5.38;0.60;;;8.10;99.90;;;;;;4969460;28;20054;-63
2023/11/16 02:43:44;;;;;;;5.70;0.82;;;8.10;99.90;;;;;;4960013;28;20153;-64
2023/11/16 02:46:10;;;;;;;2.17;0.43;;;8.10;99.90;;;;;;4969286;28;20050;-63
2023/11/16 02:48:36;;;;;;;3.70;0.68;;;8.10;99.90;;;;;;4970957;28;20038;-63
2023/11/16 02:51:03;;;;;;;4.53;0.60;;;8.10;99.90;;;;;;4971096;28;20046;-63
2023/11/16 02:53:29;;;;;;;5.93;0.63;;;8.10;99.90;;;;;;4961538;28;20109;-63
2023/11/16 02:55:56;;;;;;;3.30;0.60;;;8.10;99.90;;;;;;4961042;28;20194;-63
2023/11/16 02:58:22;;;;;;;4.53;0.57;;;8.10;99.90;;;;;;4945183;29;20122;-63
2023/11/16 03:00:50;;;;;;;6.88;0.90;;;8.10;99.90;;;;;;4951747;29;20047;-64
2023/11/16 03:03:17;;;;;;;1.23;0.20;;;8.10;99.90;;;;;;4956672;28;20469;-63
2023/11/16 03:05:44;;;;;;;4.20;0.30;;;8.10;99.90;;;;;;4970911;28;20515;-63
2023/11/16 03:08:10;;;;;;;2.53;0.45;;;8.10;99.90;;;;;;4968722;28;20047;-63
2023/11/16 03:10:37;;;;;;;7.90;0.68;;;8.10;99.90;;;;;;4957827;28;20481;-63
2023/11/16 03:13:04;;;;;;;4.38;0.45;;;8.10;99.90;;;;;;4970913;28;20408;-65
2023/11/16 03:15:30;;;;;;;3.63;0.55;;;8.00;99.90;;;;;;4968721;28;20047;-64
2023/11/16 03:17:57;;;;;;;2.70;0.30;;;8.00;99.90;;;;;;4960360;28;20047;-63
2023/11/16 03:20:26;;;;;;;2.85;0.65;;;8.00;99.90;;;;;;4957034;28;20392;-63
2023/11/16 03:22:52;;;;;;;5.18;0.80;;;8.00;99.90;;;;;;4967031;28;20413;-63
2023/11/16 03:25:20;;;;;;;4.05;0.63;;;7.90;99.90;;;;;;4959693;28;20078;-63
2023/11/16 03:27:46;;;;;;;3.22;0.63;;;7.90;99.90;;;;;;4969686;28;20471;-63
2023/11/16 03:30:16;;;;;;;1.73;0.30;;;7.80;99.90;;;;;;4970217;28;20137;-64
2023/11/16 03:32:45;;;;;;;4.22;0.75;;;7.80;99.90;;;;;;4967649;28;20222;-63
2023/11/16 03:35:15;;;;;;;4.60;0.40;;;7.80;99.90;;;;;;4960355;28;20529;-63
2023/11/16 03:37:43;;;;;;;1.63;0.28;;;7.70;99.90;;;;;;4969053;28;20137;-63
2023/11/16 03:40:12;;;;;;;5.75;0.50;;;7.70;99.90;;;;;;4970253;28;20493;-63
2023/11/16 03:42:38;;;;;;;3.53;0.55;;;7.60;99.90;;;;;;4969239;28;20050;-63
2023/11/16 03:45:06;;;;;;;3.92;0.57;;;7.60;99.90;;;;;;4961955;28;20043;-63
2023/11/16 03:47:34;;;;;;;5.05;0.50;;;7.50;99.90;;;;;;4970203;28;20409;-63
2023/11/16 03:50:04;;;;;;;1.65;0.40;;;7.50;99.90;;;;;;4968781;28;20105;-63
2023/11/16 03:52:31;;;;;;;5.23;0.70;;;7.50;99.90;;;;;;4961419;28;20461;-63
2023/11/16 03:54:58;;;;;;;1.13;0.28;;;7.50;99.90;;;;;;4968089;28;20054;-63
2023/11/16 03:57:25;;;;;;;1.02;0.30;;;7.40;99.90;;;;;;4968849;28;20110;-63
2023/11/16 03:59:52;;;;;;;4.80;0.90;;;7.40;99.90;;;;;;4968958;28;20070;-63
2023/11/16 04:02:18;;;;;;;3.28;0.52;;;7.40;99.90;;;;;;4962782;28;20563;-63
2023/11/16 04:04:47;;;;;;;5.35;0.65;;;7.30;99.90;;;;;;4969998;28;20039;-63
2023/11/16 04:07:16;;;;;;;2.70;0.57;;;7.30;99.90;;;;;;4968347;28;20412;-63
2023/11/16 04:09:42;;;;;;;2.33;0.40;;;7.30;99.90;;;;;;4962949;28;20484;-63
2023/11/16 04:12:09;;;;;;;6.35;0.32;;;7.30;99.90;;;;;;4968430;28;20178;-63
2023/11/16 04:14:40;;;;;;;1.77;0.30;;;7.30;99.90;;;;;;4969245;28;20127;-63
2023/11/16 04:17:09;;;;;;;3.83;0.30;;;7.30;99.90;;;;;;4968767;28;20047;-63
2023/11/16 04:19:36;;;;;;;2.20;0.65;;;7.30;99.90;;;;;;4960023;28;20043;-63
2023/11/16 04:22:04;;;;;;;2.38;0.25;;;7.30;99.90;;;;;;4969670;28;20090;-63
2023/11/16 04:24:31;;;;;;;4.70;0.60;;;7.30;99.90;;;;;;4967714;28;20125;-63
2023/11/16 04:26:57;;;;;;;1.23;0.40;;;7.40;99.90;;;;;;4969635;28;20050;-63
2023/11/16 04:29:24;;;;;;;6.18;0.80;;;7.50;99.90;;;;;;4960246;28;20418;-63
2023/11/16 04:31:50;;;;;;;2.30;0.20;;;7.60;99.90;;;;;;4958180;28;20046;-63
2023/11/16 04:34:17;;;;;;;6.10;0.50;;;7.60;99.90;;;;;;4967543;28;20054;-63
2023/11/16 04:36:43;;;;;;;4.82;0.50;;;7.60;99.90;;;;;;4968342;28;20783;-63
2023/11/16 04:39:11;;;;;;;2.58;0.32;;;7.60;99.90;;;;;;4969306;28;20088;-63
2023/11/16 04:41:42;;;;;;;1.88;0.38;;;7.70;99.90;;;;;;4957404;28;20082;-63
2023/11/16 04:44:08;;;;;;;1.17;0.38;;;7.70;99.90;;;;;;4969612;28;20059;-63
2023/11/16 04:46:36;;;;;;;3.63;0.47;;;7.80;99.90;;;;;;4967060;28;20038;-63
2023/11/16 04:49:03;;;;;;;2.80;0.30;;;7.80;99.90;;;;;;4969619;28;20065;-64
2023/11/16 04:51:29;;;;;;;0.73;0.28;;;7.80;99.90;;;;;;4960163;28;20039;-63
2023/11/16 04:53:56;;;;;;;6.88;0.60;;;7.70;99.90;;;;;;4969103;28;20409;-64
2023/11/16 04:56:22;;;;;;;4.57;0.75;;;7.60;99.90;;;;;;4968829;28;20141;-63
2023/11/16 04:58:49;;;;;;;0.25;0.10;;;7.60;99.90;;;;;;4967773;28;20429;-63
2023/11/16 05:01:16;;;;;;;3.67;0.40;;;7.50;99.90;;;;;;4964524;28;20545;-64
2023/11/16 05:03:46;;;;;;;1.77;0.38;;;7.50;99.90;;;;;;4965288;28;20055;-63
2023/11/16 05:06:13;;;;;;;3.27;0.53;;;7.40;99.90;;;;;;4969205;28;20053;-63
2023/11/16 05:08:40;;;;;;;1.50;0.30;;;7.30;99.90;;;;;;4969254;28;20385;-63
2023/11/16 05:11:07;;;;;;;0.68;0.28;;;7.30;99.90;;;;;;4972871;28;20043;-63
2023/11/16 05:13:34;;;;;;;1.40;0.55;;;7.20;99.90;;;;;;4966171;28;20388;-63
2023/11/16 05:16:01;;;;;;;1.90;0.20;;;7.20;99.90;;;;;;4971901;28;20070;-63
2023/11/16 05:18:28;;;;;;;3.60;0.30;;;7.10;99.90;;;;;;4955430;28;20050;-64
2023/11/16 05:20:54;;;;;;;1.83;0.30;;;7.10;99.90;;;;;;4971231;28;20058;-63
2023/11/16 05:23:21;;;;;;;1.75;0.20;;;7.00;99.90;;;;;;4969205;28;20118;-63
2023/11/16 05:25:47;;;;;;;4.35;0.40;;;7.00;99.90;;;;;;4970782;28;20050;-63
2023/11/16 05:28:14;;;;;;;1.55;0.22;;;6.90;99.90;;;;;;4945755;28;20051;-63
2023/11/16 05:30:42;;;;;;;4.88;0.30;;;6.90;99.90;;;;;;4971894;28;20137;-63
2023/11/16 05:33:09;;;;;;;0.75;0.20;;;6.90;99.90;;;;;;4968790;28;20402;-63
2023/11/16 05:35:38;;;;;;;2.08;0.40;;;6.80;99.90;;;;;;4968063;28;20074;-63
2023/11/16 05:38:05;;;;;;;2.47;0.32;;;6.80;99.90;;;;;;4965582;28;20085;-63
2023/11/16 05:40:31;;;;;;;1.27;0.30;;;6.80;99.90;;;;;;4961798;28;20054;-64
2023/11/16 05:42:58;;;;;;;2.08;0.35;;;6.70;99.90;;;;;;4970921;28;20401;-63
2023/11/16 05:45:25;;;;;;;2.38;0.30;;;6.70;99.90;;;;;;4968381;28;20085;-63
2023/11/16 05:47:51;;;;;;;1.92;0.40;;;6.60;99.90;;;;;;4965203;28;20238;-63
2023/11/16 05:50:19;;;;;;;1.85;0.20;;;6.60;99.90;;;;;;4971805;28;20039;-63
2023/11/16 05:52:46;;;;;;;0.57;0.28;;;6.60;99.90;;;;;;4972018;28;20047;-63
2023/11/16 05:55:13;;;;;;;1.90;0.40;;;6.60;99.90;;;;;;4970618;28;20151;-63
2023/11/16 05:57:42;;;;;;;0.45;0.20;;;6.60;99.90;;;;;;4964515;28;20047;-63
2023/11/16 06:00:11;;;;;;;4.35;0.73;;;6.70;99.90;;;;;;4964663;28;20051;-63
2023/11/16 06:02:39;;;;;;;3.83;0.30;;;6.70;99.90;;;;;;4961370;28;20046;-63
2023/11/16 06:05:08;;;;;;;3.40;0.60;;;6.80;99.90;;;;;;4971374;28;20472;-63
2023/11/16 06:07:36;;;;;;;6.10;0.43;;;6.90;99.90;;;;;;4962320;28;20122;-63
2023/11/16 06:10:03;;;;;;;4.70;0.45;;;7.00;99.90;;;;;;4966624;28;20058;-63
2023/11/16 06:12:29;;;;;;;3.13;0.63;;;7.20;99.90;;;;;;4952995;28;20047;-63
2023/11/16 06:14:56;;;;;;;7.65;0.50;;;7.20;99.90;;;;;;4971643;28;20050;-63
2023/11/16 06:17:23;;;;;;;2.90;0.35;;;7.20;99.90;;;;;;4962998;28;20051;-63
2023/11/16 06:19:49;;;;;;;3.05;0.50;;;7.30;99.90;;;;;;4957992;28;20394;-63
2023/11/16 06:22:16;;;;;;;3.60;0.93;;;7.20;99.90;;;;;;4955038;28;20043;-63
2023/11/16 06:24:42;;;;;;;3.45;1.40;;;7.10;99.90;;;;;;4951643;29;20054;-63
2023/11/16 06:27:09;;;;;;;4.45;1.33;;;7.00;99.90;;;;;;4952018;29;20050;-63
2023/11/16 06:29:35;;;;;;;5.60;1.42;;;6.90;99.90;;;;;;4950384;29;20062;-63
2023/11/16 06:32:05;;;;;;;7.75;1.50;;;6.80;99.90;;;;;;4952257;29;20054;-63
2023/11/16 06:34:33;;;;;;;3.53;1.10;;;6.70;99.90;;;;;;4950494;29;20098;-63
2023/11/16 06:37:00;;;;;;;4.07;1.27;;;6.60;99.90;;;;;;4951806;29;20047;-63
2023/11/16 06:39:28;;;;;;;8.02;1.20;;;6.40;99.90;;;;;;4950448;29;20118;-63
2023/11/16 06:41:56;;;;;;;3.47;1.48;;;6.40;99.90;;;;;;4951212;29;20134;-63
2023/11/16 06:44:23;;;;;;;10.85;1.13;;;6.30;99.90;;;;;;4964118;28;20456;-63
2023/11/16 06:46:49;;;;;;;7.28;0.70;;;6.20;99.90;;;;;;4950480;29;20043;-63
2023/11/16 06:49:16;;;;;;;5.53;0.82;;;6.00;99.90;;;;;;4951876;29;20043;-63
2023/11/16 06:51:43;;;;;;;1.92;1.05;;;6.00;99.90;;;;;;4949632;29;20055;-63
2023/11/16 06:54:11;;;;;;;4.28;0.50;;;5.90;99.90;;;;;;4951809;29;20509;-63
2023/11/16 06:56:40;;;;;;;2.08;0.40;;;5.80;99.90;;;;;;4950354;29;20051;-63
2023/11/16 06:59:12;;;;;;;2.45;0.40;;;5.70;99.90;;;;;;4951451;29;20058;-63
2023/11/16 07:01:40;;;;;;;1.70;0.73;;;5.60;99.90;;;;;;4951063;29;20130;-63
2023/11/16 07:04:07;;;;;;;0.73;0.30;;;5.60;99.90;;;;;;4950429;29;20207;-63
2023/11/16 07:06:33;;;;;;;1.33;0.30;;;5.50;99.90;;;;;;4951058;29;20061;-63
2023/11/16 07:09:00;;;;;;;4.07;0.50;;;5.40;99.90;;;;;;4950967;28;20047;-63
2023/11/16 07:11:26;;;;;;;1.90;0.28;;;5.30;99.90;;;;;;4970961;28;20126;-63
2023/11/16 07:13:53;;;;;;;5.88;0.20;;;5.20;99.90;;;;;;4968933;28;20390;-63
2023/11/16 07:16:19;;;;;;;2.30;0.40;;;5.10;99.90;;;;;;4956809;28;20416;-63
2023/11/16 07:18:48;;;;;;;0.47;0.20;;;5.00;99.90;;;;;;4969879;28;20500;-63
2023/11/16 07:21:15;;;;;;;0.52;0.20;;;5.00;99.90;;;;;;4969618;28;20086;-63
2023/11/16 07:23:44;;;;;;;1.27;0.30;;;5.00;99.90;;;;;;4970882;28;20089;-63
2023/11/16 07:26:10;;;;;;;2.55;0.30;;;5.10;99.90;;;;;;4961146;28;20125;-63
2023/11/16 07:28:38;;;;;;;0.88;0.43;;;5.10;99.90;;;;;;4959886;28;20050;-63
2023/11/16 07:31:05;;;;;;;0.38;0.30;;;5.30;99.90;;;;;;4967332;28;20058;-63
2023/11/16 07:33:34;;;;;;;0.73;0.20;;;5.40;99.90;;;;;;4970514;28;20378;-63
2023/11/16 07:36:03;;;;;;;4.78;0.43;;;5.60;99.90;;;;;;4967254;28;20097;-63
2023/11/16 07:38:31;;;;;;;3.13;0.40;;;5.80;99.90;;;;;;4943449;28;20103;-63
2023/11/16 07:40:58;;;;;;;5.20;0.47;;;5.90;99.90;;;;;;4970031;28;20096;-63
2023/11/16 07:43:25;;;;;;;1.08;0.30;;;6.00;99.90;;;;;;4968778;28;20046;-63
2023/11/16 07:45:52;;;;;;;1.17;0.40;;;6.10;99.90;;;;;;4970043;28;20507;-63
2023/11/16 07:48:19;;;;;;;1.95;0.70;;;6.10;99.90;;;;;;4955578;28;20049;-63
2023/11/16 07:50:46;;;;;;;2.50;0.40;;;6.10;99.90;;;;;;4970319;28;20051;-63
2023/11/16 07:53:13;;;;;;;3.60;0.50;;;6.20;99.90;;;;;;4969210;28;20493;-63
2023/11/16 07:55:42;;;;;;;1.20;0.35;;;6.30;99.90;;;;;;4969423;28;20034;-63
2023/11/16 07:58:12;;;;;;;1.35;0.43;;;6.30;99.90;;;;;;4959627;28;20059;-63
2023/11/16 08:00:55;;;;;;;6.47;0.47;;;6.30;99.90;;;;;;4968420;28;20485;-63
2023/11/16 08:06:12;;;;;;;0.85;0.28;;;6.40;99.90;;;;;;4960540;28;20044;-63
2023/11/16 08:08:49;;;;;;;1.45;0.55;;;6.40;99.90;;;;;;4949123;29;20417;-63
2023/11/16 08:11:17;;;;;;;0.25;0.20;;;6.40;99.90;;;;;;4937157;28;20051;-63
2023/11/16 08:13:47;;;;;;;1.23;0.40;;;6.40;99.90;;;;;;4960765;28;20054;-63
2023/11/16 08:16:21;;;;;;;5.22;0.52;;;6.40;99.90;;;;;;4969529;28;20039;-63
2023/11/16 08:18:52;;;;;;;0.38;0.38;;;6.40;99.90;;;;;;4962543;28;20053;-63
2023/11/16 08:21:19;;;;;;;3.22;0.90;;;6.40;99.90;;;;;;4954352;28;20101;-63
2023/11/16 08:23:45;;;;;;;3.22;0.65;;;6.40;99.90;;;;;;4949271;28;20089;-63
2023/11/16 08:26:13;;;;;;;2.47;0.77;;;6.50;99.90;;;;;;4950841;28;20504;-63
2023/11/16 08:28:42;;;;;;;4.93;0.77;;;6.50;99.90;;;;;;4954553;28;20051;-63
2023/11/16 08:31:12;;;;;;;5.03;0.70;;;6.50;99.90;;;;;;4948109;29;20146;-63
2023/11/16 08:33:40;;;;;;;6.32;0.90;;;6.60;99.90;;;;;;4950009;29;20047;-63
2023/11/16 08:36:10;;;;;;;3.95;0.77;;;6.60;99.90;;;;;;4947978;29;20039;-63
2023/11/16 08:38:45;;;;;;;2.17;0.57;;;6.80;99.90;;;;;;4949594;29;20409;-63
2023/11/16 08:41:16;;;;;;;6.65;0.82;;;6.80;99.90;;;;;;4944555;29;20051;-63
2023/11/16 08:43:44;;;;;;;11.50;0.85;;;6.90;99.90;;;;;;4947558;29;20528;-63
2023/11/16 08:46:12;;;;;;;9.35;1.02;;;7.00;99.90;;;;;;4949942;29;20093;-63
2023/11/16 08:48:43;;;;;;;6.50;0.80;;;7.00;99.90;;;;;;4947684;29;20043;-63
2023/11/16 08:51:14;;;;;;;3.33;0.73;;;7.10;99.90;;;;;;4949424;28;20054;-63
2023/11/16 08:53:43;;;;;;;3.33;0.60;;;7.10;99.90;;;;;;4949449;29;20613;-63
2023/11/16 08:56:11;;;;;;;2.78;0.50;;;7.20;99.90;;;;;;4948386;29;20078;-63
2023/11/16 08:58:47;;;;;;;2.67;0.90;;;7.30;99.90;;;;;;4947827;29;20090;-63
2023/11/16 09:01:17;;;;;;;4.80;0.70;;;7.40;99.90;;;;;;4948033;29;20061;-63
2023/11/16 09:03:49;;;;;;;1.38;0.50;;;7.40;99.90;;;;;;4961177;28;20509;-63
2023/11/16 09:06:21;;;;;;;3.20;0.77;;;7.40;99.90;;;;;;4948430;29;20055;-63
2023/11/16 09:08:51;;;;;;;2.42;0.50;;;7.50;99.90;;;;;;4947400;29;20106;-63
2023/11/16 09:11:22;;;;;;;4.10;0.73;;;7.60;99.90;;;;;;4942644;28;20428;-63
2023/11/16 09:13:49;;;;;;;2.95;0.45;;;7.60;99.90;;;;;;4967600;28;20046;-63
2023/11/16 09:16:15;;;;;;;4.32;0.50;;;7.70;99.90;;;;;;4968880;28;20043;-63
2023/11/16 09:18:42;;;;;;;3.50;0.55;;;7.70;99.90;;;;;;4963114;28;20584;-63
2023/11/16 09:21:09;;;;;;;0.43;0.40;;;7.80;99.90;;;;;;4966150;28;20085;-63
2023/11/16 09:23:36;;;;;;;2.28;0.50;;;7.80;99.90;;;;;;4967781;28;20097;-63
2023/11/16 09:26:04;;;;;;;2.03;0.45;;;7.90;99.90;;;;;;4968156;28;20125;-63
2023/11/16 09:28:35;;;;;;;1.00;0.60;;;7.90;99.90;;;;;;4968552;28;20054;-63
2023/11/16 09:31:02;;;;;;;1.70;0.57;;;7.80;99.90;;;;;;4962249;28;20051;-63
2023/11/16 09:33:28;;;;;;;2.90;1.23;;;7.80;99.90;;;;;;4969014;28;20047;-63
2023/11/16 09:35:55;;;;;;;5.38;1.40;;;7.90;99.90;;;;;;4967291;28;20139;-63
2023/11/16 09:38:22;;;;;;;1.27;0.77;;;7.90;99.90;;;;;;4968377;28;20043;-63
2023/11/16 09:40:49;;;;;;;0.82;0.40;;;8.00;99.90;;;;;;4965279;28;20051;-63
2023/11/16 09:43:20;;;;;;;2.17;0.70;;;8.00;99.90;;;;;;4968307;28;20067;-63
2023/11/16 09:45:50;;;;;;;0.90;0.40;;;8.10;99.90;;;;;;4963274;28;20563;-63
2023/11/16 09:48:22;;;;;;;0.73;0.40;;;8.10;99.90;;;;;;4966979;28;20039;-63
2023/11/16 09:50:53;;;;;;;7.15;0.63;;;8.10;99.90;;;;;;4958785;28;20118;-63
2023/11/16 09:53:23;;;;;;;5.30;0.60;;;8.00;99.90;;;;;;4963430;28;20472;-63
2023/11/16 09:55:54;;;;;;;;;;;7.90;99.90;;;;;;4973171;28;20501;-63
2023/11/16 09:58:28;;;;;;;3.70;0.60;;;7.90;99.90;;;;;;4971428;28;19926;-62
2023/11/16 10:00:58;;;;;;;1.65;0.47;;;8.00;99.90;;;;;;4963257;28;20051;-63
2023/11/16 10:03:26;;;;;;;;;;;8.00;99.90;;;;;;4967972;28;20053;-63
2023/11/16 10:05:56;;;;;;;0.45;0.10;;;8.10;99.90;;;;;;4970600;28;19926;-63
2023/11/16 10:08:29;;;;;;;2.15;0.25;;;8.20;99.90;;;;;;4971984;28;20082;-63
2023/11/16 10:11:02;;;;;;;1.10;0.20;;;8.20;99.90;;;;;;4970322;28;20038;-63
2023/11/16 10:13:28;;;;;;;1.27;0.25;;;8.30;99.90;;;;;;4971510;28;20090;-62
2023/11/16 10:16:11;;;;;;;3.47;0.45;;;8.40;99.90;;;;;;4964265;28;20039;-63
2023/11/16 10:18:42;;;;;;;3.33;0.50;;;8.50;99.90;;;;;;4963482;28;20058;-63
2023/11/16 10:21:08;;;;;;;0.82;0.40;;;8.60;99.90;;;;;;4968954;28;20101;-63
2023/11/16 10:23:35;;;;;;;1.70;0.40;;;8.60;99.90;;;;;;4970363;28;20433;-63
2023/11/16 10:26:05;;;;;;;1.10;0.25;;;8.70;99.90;;;;;;4971759;28;20584;-63
2023/11/16 10:28:34;;;;;;;;;;;8.80;99.90;;;;;;4970733;28;20046;-63
2023/11/16 10:31:01;;;;;;;1.83;0.57;;;8.80;99.90;;;;;;4964787;28;20300;-63
2023/11/16 10:33:29;;;;;;;2.08;0.55;;;8.80;99.90;;;;;;4971482;28;20175;-62
2023/11/16 10:35:57;;;;;;;1.75;0.70;;;8.80;99.90;;;;;;4969875;28;20085;-63
2023/11/16 10:38:28;;;;;;;2.75;0.40;;;8.90;99.90;;;;;;4971089;28;20035;-63
2023/11/16 10:40:55;;;;;;;1.17;0.80;;;8.90;99.90;;;;;;4962260;28;20093;-62
2023/11/16 10:43:26;;;;;;;1.23;0.60;;;8.90;99.90;;;;;;4955213;28;20735;-63
2023/11/16 10:45:56;;;;;;;2.95;0.75;;;9.00;99.90;;;;;;4946817;29;20469;-63
2023/11/16 10:48:25;;;;;;;2.35;0.85;;;9.10;99.90;;;;;;4950049;29;20192;-62
2023/11/16 10:50:52;;;;;;;2.17;1.27;;;9.10;99.90;;;;;;4951963;29;20062;-63
2023/11/16 10:53:22;;;;;;;4.75;0.75;;;9.20;99.90;;;;;;4949700;29;20501;-63
2023/11/16 10:55:55;;;;;;;4.15;1.10;;;9.20;99.90;;;;;;4960548;28;20402;-63
2023/11/16 10:58:29;;;;;;;3.10;1.27;;;9.30;99.90;;;;;;4949805;28;20562;-63
2023/11/16 11:01:07;;;;;;;1.90;1.58;;;9.30;99.90;;;;;;4941491;29;20047;-63
2023/11/16 11:03:37;;;;;;;3.30;1.67;;;9.30;99.90;;;;;;4950531;29;20055;-62
2023/11/16 11:06:06;;;;;;;;;;;9.40;99.90;;;;;;4949959;28;20085;-61
2023/11/16 11:08:42;;;;;;;3.33;0.40;;;9.30;99.90;;;;;;4951329;29;19988;-61
2023/11/16 11:11:14;;;;;;;3.60;0.50;;;9.30;99.90;;;;;;4968441;28;20042;-61
2023/11/16 11:13:43;;;;;;;7.15;0.38;;;9.40;99.90;;;;;;4970978;28;20449;-62
2023/11/16 11:16:15;;;;;;;11.98;0.57;;;9.40;99.90;;;;;;4960263;28;20437;-61
2023/11/16 11:18:51;;;;;;;2.65;0.52;;;9.30;99.90;;;;;;4961239;28;20133;-61
2023/11/16 11:21:20;;;;;;;1.85;0.20;;;9.30;99.90;;;;;;4961051;28;20150;-61
2023/11/16 11:23:59;;;;;;;1.63;0.40;;;9.30;99.90;;;;;;4949579;29;20493;-62
2023/11/16 11:26:36;;;;;;;2.03;0.40;;;9.30;99.90;;;;;;4950900;29;20069;-62
2023/11/16 11:29:04;;;;;;;3.85;0.55;;;9.30;99.90;;;;;;4950379;29;20417;-62
2023/11/16 11:32:03;;;;;;;5.47;0.70;;;9.20;99.90;;;;;;4949239;29;20422;-61
2023/11/16 11:34:36;;;;;;;0.88;0.30;;;9.20;99.90;;;;;;4950651;28;20043;-61
2023/11/16 11:37:07;;;;;;;0.55;0.13;;;9.20;99.90;;;;;;4958529;28;20051;-62
2023/11/16 11:39:45;;;;;;;4.00;0.35;;;9.20;99.90;;;;;;4950764;29;20044;-61
2023/11/16 11:42:13;;;;;;;1.73;0.30;;;9.10;99.90;;;;;;4950934;29;20051;-61
2023/11/16 11:44:52;;;;;;;0.75;0.35;;;9.10;99.90;;;;;;4949151;29;20674;-61
2023/11/16 11:47:20;;;;;;;1.10;0.10;;;9.10;99.90;;;;;;4950322;29;20043;-61
2023/11/16 11:49:48;;;;;;;0.65;0.22;;;9.10;98.80;;;;;;4948597;29;20082;-61
2023/11/16 11:52:17;;;;;;;2.97;0.20;;;9.10;26.30;;;;;;4950734;29;20105;-61
2023/11/16 11:54:45;;;;;;;1.67;0.30;;;9.10;22.30;;;;;;4948671;29;20071;-61
2023/11/16 11:57:11;;;;;;;4.05;0.32;;;9.00;17.10;;;;;;4950241;29;20111;-61
2023/11/16 11:59:38;;;;;;;2.83;0.47;;;9.00;14.40;;;;;;4950036;29;20075;-61
2023/11/16 12:02:07;;;;;;;1.30;0.20;;;9.10;15.60;;;;;;4947775;29;20452;-61
2023/11/16 12:04:34;;;;;;;1.25;0.30;;;9.10;21.60;;;;;;4950221;29;20054;-61
2023/11/16 12:07:09;;;;;;;4.68;0.38;;;9.20;17.20;;;;;;4947893;28;20050;-61
2023/11/16 12:09:49;;;;;;;3.50;0.77;;;9.20;14.80;;;;;;4956348;28;20050;-61
2023/11/16 12:12:16;;;;;;;0.65;0.30;;;9.20;14.50;;;;;;4968948;28;20047;-61
2023/11/16 12:14:46;;;;;;;8.20;0.47;;;9.30;14.80;;;;;;4968477;28;20043;-61
2023/11/16 12:17:12;;;;;;;;;;;9.40;15.30;;;;;;4968294;28;20042;-63
2023/11/16 12:19:42;;;;;;;0.10;0.10;;;9.40;15.20;;;;;;4962355;28;20431;-62
2023/11/16 12:22:14;;;;;;;3.72;0.30;;;9.40;15.50;;;;;;4950383;29;20532;-63
2023/11/16 12:24:41;;;;;;;5.28;0.32;;;9.40;15.30;;;;;;4966157;28;20046;-62
2023/11/16 12:27:13;;;;;;;0.70;0.25;;;9.50;17.90;;;;;;4952344;28;20044;-63
2023/11/16 12:29:43;;;;;;;4.88;0.60;;;9.60;19.50;;;;;;4961988;28;20086;-63
2023/11/16 12:32:09;;;;;;;1.77;0.30;;;9.60;18.00;;;;;;4951389;28;20082;-63
2023/11/16 12:34:37;;;;;;;1.10;0.43;;;9.70;18.20;;;;;;4965439;28;20047;-63
2023/11/16 12:37:05;;;;;;;0.35;0.25;;;9.80;20.90;;;;;;4965006;28;20050;-63
2023/11/16 12:39:32;;;;;;;1.75;0.20;;;9.90;17.90;;;;;;4951422;28;20036;-63
2023/11/16 12:42:07;;;;;;;1.02;0.22;;;9.90;11.90;;;;;;4948288;29;20054;-63
2023/11/16 12:44:34;;;;;;;1.05;0.30;;;9.90;4.90;;;;;;4944197;29;20051;-64
2023/11/16 12:47:02;;;;;;;0.80;0.10;;;9.80;3.40;;;;;;4948670;29;20031;-63
2023/11/16 12:49:28;;;;;;;0.20;0.20;;;9.80;1.00;;;;;;4941858;29;20045;-63
2023/11/16 12:51:54;;;;;;;1.90;0.25;;;9.90;5.70;;;;;;4949304;29;20535;-63
2023/11/16 12:54:21;;;;;;;0.73;0.17;;;9.80;1.10;;;;;;4947854;29;20054;-63
2023/11/16 12:56:49;;;;;;;0.45;0.10;;;9.80;3.00;;;;;;4949500;29;20397;-63
2023/11/16 12:59:15;;;;;;;0.85;0.20;;;9.70;1.40;;;;;;4948388;29;20051;-63
2023/11/16 13:01:42;;;;;;;1.48;0.10;;;9.60;4.30;;;;;;4948335;29;20118;-63
2023/11/16 13:04:11;;;;;;;2.25;0.17;;;9.60;8.00;;;;;;4948158;28;20047;-63
2023/11/16 13:06:38;;;;;;;2.77;0.20;;;9.60;10.20;;;;;;4948218;29;20518;-63